createdAt,value
2016-12-10T00:00:19.603Z,922.51
2016-12-10T00:00:47.903Z,922.48
2016-12-10T00:01:16.252Z,922.51
2016-12-10T00:01:44.443Z,922.57
2016-12-10T00:02:12.636Z,922.53
2016-12-10T00:03:23.921Z,922.52
2016-12-10T00:03:52.122Z,922.53
2016-12-10T00:04:20.090Z,922.53
2016-12-10T00:04:48.178Z,922.52
2016-12-10T00:05:16.408Z,922.55
2016-12-10T00:05:44.656Z,922.53
2016-12-10T00:06:12.837Z,922.55
2016-12-10T00:06:40.950Z,922.53
2016-12-10T00:07:09.195Z,922.54
2016-12-10T00:07:37.248Z,922.54
2016-12-10T00:08:05.344Z,922.5
2016-12-10T00:09:16.632Z,922.52
2016-12-10T00:09:44.836Z,922.53
2016-12-10T00:10:13.058Z,922.52
2016-12-10T00:10:41.147Z,922.54
2016-12-10T00:11:09.188Z,922.54
2016-12-10T00:11:37.352Z,922.54
2016-12-10T00:12:05.343Z,922.57
2016-12-10T00:12:33.647Z,922.56
2016-12-10T00:13:01.806Z,922.58
2016-12-10T00:13:29.824Z,922.57
2016-12-10T00:13:57.918Z,922.62
2016-12-10T00:15:09.207Z,922.6
2016-12-10T00:15:37.509Z,922.6
2016-12-10T00:16:05.633Z,922.59
2016-12-10T00:16:33.726Z,922.64
2016-12-10T00:17:01.770Z,922.64
2016-12-10T00:17:29.836Z,922.64
2016-12-10T00:17:58.013Z,922.61
2016-12-10T00:18:26.135Z,922.64
2016-12-10T00:18:54.478Z,922.68
2016-12-10T00:19:22.667Z,922.62
2016-12-10T00:19:50.769Z,922.66
2016-12-10T00:21:01.800Z,922.66
2016-12-10T00:21:29.909Z,922.65
2016-12-10T00:21:57.939Z,922.72
2016-12-10T00:22:25.937Z,922.67
2016-12-10T00:22:54.066Z,922.7
2016-12-10T00:23:22.040Z,922.72
2016-12-10T00:23:50.122Z,922.69
2016-12-10T00:24:18.333Z,922.71
2016-12-10T00:24:46.488Z,922.72
2016-12-10T00:25:14.500Z,922.69
2016-12-10T00:25:42.505Z,922.7
2016-12-10T00:26:53.601Z,922.73
2016-12-10T00:27:21.812Z,922.74
2016-12-10T00:27:49.934Z,922.72
2016-12-10T00:28:18.115Z,922.73
2016-12-10T00:28:46.346Z,922.74
2016-12-10T00:29:14.416Z,922.72
2016-12-10T00:29:42.590Z,922.71
2016-12-10T00:30:10.803Z,922.74
2016-12-10T00:30:39.061Z,922.73
2016-12-10T00:31:07.160Z,922.75
2016-12-10T00:31:35.451Z,922.75
2016-12-10T00:32:46.741Z,922.73
2016-12-10T00:33:14.763Z,922.75
2016-12-10T00:33:42.888Z,922.72
2016-12-10T00:34:10.883Z,922.74
2016-12-10T00:34:39.112Z,922.79
2016-12-10T00:35:07.278Z,922.75
2016-12-10T00:35:35.454Z,922.75
2016-12-10T00:36:03.662Z,922.76
2016-12-10T00:36:32.004Z,922.76
2016-12-10T00:37:00.106Z,922.75
2016-12-10T00:37:28.298Z,922.76
2016-12-10T00:38:39.218Z,922.8
2016-12-10T00:39:07.427Z,922.81
2016-12-10T00:39:35.464Z,922.8
2016-12-10T00:40:03.559Z,922.8
2016-12-10T00:40:31.885Z,922.74
2016-12-10T00:40:59.859Z,922.82
2016-12-10T00:41:28.028Z,922.78
2016-12-10T00:41:56.234Z,922.82
2016-12-10T00:42:24.391Z,922.78
2016-12-10T00:42:52.490Z,922.77
2016-12-10T00:43:20.778Z,922.76
2016-12-10T00:44:31.878Z,922.76
2016-12-10T00:45:00.091Z,922.72
2016-12-10T00:45:28.220Z,922.76
2016-12-10T00:45:56.400Z,922.77
2016-12-10T00:46:24.631Z,922.8
2016-12-10T00:46:53.565Z,922.74
2016-12-10T00:47:21.641Z,922.76
2016-12-10T00:47:49.762Z,922.78
2016-12-10T00:48:17.964Z,922.75
2016-12-10T00:48:46.109Z,922.78
2016-12-10T00:49:14.359Z,922.74
2016-12-10T00:50:25.559Z,922.76
2016-12-10T00:50:53.697Z,922.74
2016-12-10T00:51:21.914Z,922.7
2016-12-10T00:51:50.097Z,922.73
2016-12-10T00:52:18.476Z,922.71
2016-12-10T00:52:46.639Z,922.72
2016-12-10T00:53:14.816Z,922.7
2016-12-10T00:53:43.020Z,922.7
2016-12-10T00:54:11.121Z,922.72
2016-12-10T00:54:39.354Z,922.71
2016-12-10T00:55:07.510Z,922.74
2016-12-10T00:56:18.801Z,922.72
2016-12-10T00:56:47.003Z,922.65
2016-12-10T00:57:15.127Z,922.7
2016-12-10T00:57:43.313Z,922.66
2016-12-10T00:58:11.351Z,922.66
2016-12-10T00:58:39.510Z,922.65
2016-12-10T00:59:07.771Z,922.7
2016-12-10T00:59:35.982Z,922.66
2016-12-10T01:00:04.135Z,922.66
2016-12-10T01:00:32.339Z,922.68
2016-12-10T01:01:00.344Z,922.65
2016-12-10T01:02:11.533Z,922.66
2016-12-10T01:02:39.740Z,922.65
2016-12-10T01:03:07.864Z,922.64
2016-12-10T01:03:36.142Z,922.64
2016-12-10T01:04:04.370Z,922.71
2016-12-10T01:04:32.623Z,922.71
2016-12-10T01:05:00.891Z,922.65
2016-12-10T01:05:29.196Z,922.68
2016-12-10T01:05:57.540Z,922.69
2016-12-10T01:06:25.736Z,922.69
2016-12-10T01:06:54.020Z,922.75
2016-12-10T01:08:05.209Z,922.63
2016-12-10T01:08:33.418Z,922.73
2016-12-10T01:09:01.633Z,922.7
2016-12-10T01:09:29.910Z,922.74
2016-12-10T01:09:58.130Z,922.71
2016-12-10T01:10:26.196Z,922.72
2016-12-10T01:10:54.465Z,922.72
2016-12-10T01:11:22.676Z,922.79
2016-12-10T01:11:51.015Z,922.75
2016-12-10T01:12:19.032Z,922.75
2016-12-10T01:12:47.131Z,922.74
2016-12-10T01:13:58.225Z,922.75
2016-12-10T01:14:26.529Z,922.74
2016-12-10T01:14:54.666Z,922.74
2016-12-10T01:15:22.854Z,922.7
2016-12-10T01:15:51.083Z,922.72
2016-12-10T01:16:19.252Z,922.72
2016-12-10T01:16:47.338Z,922.72
2016-12-10T01:17:15.640Z,922.68
2016-12-10T01:17:43.713Z,922.68
2016-12-10T01:18:11.736Z,922.73
2016-12-10T01:18:39.928Z,922.76
2016-12-10T01:19:51.243Z,922.72
2016-12-10T01:20:19.463Z,922.69
2016-12-10T01:20:47.775Z,922.72
2016-12-10T01:21:15.865Z,922.69
2016-12-10T01:21:44.189Z,922.69
2016-12-10T01:22:12.351Z,922.69
2016-12-10T01:22:40.524Z,922.68
2016-12-10T01:23:08.637Z,922.72
2016-12-10T01:23:36.915Z,922.72
2016-12-10T01:24:05.024Z,922.68
2016-12-10T01:24:33.214Z,922.72
2016-12-10T01:25:44.506Z,922.71
2016-12-10T01:26:12.632Z,922.65
2016-12-10T01:26:40.850Z,922.65
2016-12-10T01:27:08.783Z,922.67
2016-12-10T01:27:37.012Z,922.7
2016-12-10T01:28:05.080Z,922.67
2016-12-10T01:28:33.266Z,922.67
2016-12-10T01:29:01.483Z,922.72
2016-12-10T01:29:29.641Z,922.7
2016-12-10T01:29:57.646Z,922.69
2016-12-10T01:30:25.652Z,922.7
2016-12-10T01:31:36.660Z,922.76
2016-12-10T01:32:04.962Z,922.73
2016-12-10T01:32:33.084Z,922.74
2016-12-10T01:33:01.103Z,922.73
2016-12-10T01:33:29.343Z,922.73
2016-12-10T01:33:57.514Z,922.7
2016-12-10T01:34:25.694Z,922.74
2016-12-10T01:34:53.715Z,922.67
2016-12-10T01:35:21.873Z,922.7
2016-12-10T01:35:50.061Z,922.74
2016-12-10T01:36:17.977Z,922.75
2016-12-10T01:37:29.174Z,922.74
2016-12-10T01:37:57.379Z,922.72
2016-12-10T01:38:25.509Z,922.74
2016-12-10T01:38:53.689Z,922.7
2016-12-10T01:39:21.823Z,922.71
2016-12-10T01:39:49.892Z,922.7
2016-12-10T01:40:18.155Z,922.66
2016-12-10T01:40:46.267Z,922.72
2016-12-10T01:41:14.516Z,922.66
2016-12-10T01:41:42.564Z,922.65
2016-12-10T01:42:10.852Z,922.64
2016-12-10T01:43:22.143Z,922.66
2016-12-10T01:43:50.264Z,922.65
2016-12-10T01:44:18.572Z,922.65
2016-12-10T01:44:46.760Z,922.66
2016-12-10T01:45:15.013Z,922.63
2016-12-10T01:45:43.087Z,922.63
2016-12-10T01:46:11.356Z,922.63
2016-12-10T01:46:39.572Z,922.61
2016-12-10T01:47:07.929Z,922.57
2016-12-10T01:47:36.223Z,922.59
2016-12-10T01:48:04.507Z,922.59
2016-12-10T01:49:15.516Z,922.59
2016-12-10T01:49:43.825Z,922.59
2016-12-10T01:50:12.135Z,922.57
2016-12-10T01:50:40.075Z,922.58
2016-12-10T01:51:08.312Z,922.57
2016-12-10T01:51:36.380Z,922.58
2016-12-10T01:52:04.458Z,922.6
2016-12-10T01:52:32.578Z,922.61
2016-12-10T01:53:00.734Z,922.63
2016-12-10T01:53:28.930Z,922.6
2016-12-10T01:53:57.125Z,922.58
2016-12-10T01:55:08.321Z,922.59
2016-12-10T01:55:36.450Z,922.58
2016-12-10T01:56:04.590Z,922.56
2016-12-10T01:56:32.681Z,922.57
2016-12-10T01:57:00.904Z,922.58
2016-12-10T01:57:29.093Z,922.59
2016-12-10T01:57:57.171Z,922.6
2016-12-10T01:58:25.390Z,922.57
2016-12-10T01:58:53.641Z,922.53
2016-12-10T01:59:21.833Z,922.5
2016-12-10T01:59:49.936Z,922.5
2016-12-10T02:01:01.135Z,922.52
2016-12-10T02:01:29.249Z,922.53
2016-12-10T02:01:57.468Z,922.54
2016-12-10T02:02:25.464Z,922.52
2016-12-10T02:02:53.604Z,922.54
2016-12-10T02:03:21.767Z,922.54
2016-12-10T02:03:49.954Z,922.55
2016-12-10T02:04:18.167Z,922.54
2016-12-10T02:04:46.230Z,922.55
2016-12-10T02:05:14.430Z,922.54
2016-12-10T02:05:42.715Z,922.53
2016-12-10T02:06:54.005Z,922.52
2016-12-10T02:07:22.119Z,922.51
2016-12-10T02:07:50.345Z,922.51
2016-12-10T02:08:18.528Z,922.47
2016-12-10T02:08:46.786Z,922.46
2016-12-10T02:09:14.949Z,922.44
2016-12-10T02:09:43.126Z,922.45
2016-12-10T02:10:11.347Z,922.42
2016-12-10T02:10:39.593Z,922.38
2016-12-10T02:11:07.694Z,922.4
2016-12-10T02:11:35.707Z,922.43
2016-12-10T02:12:46.812Z,922.41
2016-12-10T02:13:14.925Z,922.4
2016-12-10T02:13:43.232Z,922.39
2016-12-10T02:14:11.325Z,922.36
2016-12-10T02:14:39.457Z,922.36
2016-12-10T02:15:07.612Z,922.34
2016-12-10T02:15:35.599Z,922.34
2016-12-10T02:16:03.902Z,922.37
2016-12-10T02:16:31.967Z,922.37
2016-12-10T02:17:00.166Z,922.37
2016-12-10T02:17:28.265Z,922.36
2016-12-10T02:18:39.554Z,922.37
2016-12-10T02:19:07.664Z,922.37
2016-12-10T02:19:35.788Z,922.35
2016-12-10T02:20:04.066Z,922.35
2016-12-10T02:20:32.388Z,922.37
2016-12-10T02:21:00.449Z,922.36
2016-12-10T02:21:28.620Z,922.33
2016-12-10T02:21:56.924Z,922.33
2016-12-10T02:22:25.169Z,922.37
2016-12-10T02:22:53.362Z,922.33
2016-12-10T02:23:21.462Z,922.34
2016-12-10T02:24:32.567Z,922.36
2016-12-10T02:25:00.581Z,922.33
2016-12-10T02:25:28.801Z,922.32
2016-12-10T02:25:57.076Z,922.29
2016-12-10T02:26:25.401Z,922.34
2016-12-10T02:26:53.651Z,922.32
2016-12-10T02:27:21.922Z,922.33
2016-12-10T02:27:49.972Z,922.34
2016-12-10T02:28:18.222Z,922.28
2016-12-10T02:28:46.421Z,922.32
2016-12-10T02:29:14.710Z,922.32
2016-12-10T02:30:25.904Z,922.29
2016-12-10T02:30:54.016Z,922.27
2016-12-10T02:31:22.233Z,922.28
2016-12-10T02:31:50.413Z,922.33
2016-12-10T02:32:18.638Z,922.32
2016-12-10T02:32:46.887Z,922.27
2016-12-10T02:33:15.060Z,922.31
2016-12-10T02:33:43.273Z,922.29
2016-12-10T02:34:11.503Z,922.28
2016-12-10T02:34:39.603Z,922.31
2016-12-10T02:35:07.886Z,922.31
2016-12-10T02:36:19.078Z,922.3
2016-12-10T02:36:47.284Z,922.3
2016-12-10T02:37:15.407Z,922.29
2016-12-10T02:37:43.682Z,922.33
2016-12-10T02:38:11.908Z,922.28
2016-12-10T02:38:40.067Z,922.28
2016-12-10T02:39:08.334Z,922.32
2016-12-10T02:39:36.542Z,922.28
2016-12-10T02:40:04.791Z,922.3
2016-12-10T02:40:32.893Z,922.28
2016-12-10T02:41:01.085Z,922.28
2016-12-10T02:42:12.276Z,922.28
2016-12-10T02:42:40.484Z,922.27
2016-12-10T02:43:08.706Z,922.29
2016-12-10T02:43:36.797Z,922.28
2016-12-10T02:44:05.121Z,922.31
2016-12-10T02:44:33.374Z,922.23
2016-12-10T02:45:01.644Z,922.26
2016-12-10T02:45:29.760Z,922.29
2016-12-10T02:45:58.038Z,922.24
2016-12-10T02:46:26.140Z,922.22
2016-12-10T02:46:54.241Z,922.2
2016-12-10T02:48:05.528Z,922.23
2016-12-10T02:48:33.732Z,922.22
2016-12-10T02:49:01.769Z,922.18
2016-12-10T02:49:30.045Z,922.18
2016-12-10T02:49:58.275Z,922.24
2016-12-10T02:50:26.531Z,922.21
2016-12-10T02:50:54.698Z,922.17
2016-12-10T02:51:22.903Z,922.18
2016-12-10T02:51:51.159Z,922.13
2016-12-10T02:52:19.354Z,922.16
2016-12-10T02:52:47.545Z,922.12
2016-12-10T02:53:58.768Z,922.09
2016-12-10T02:54:26.972Z,922.12
2016-12-10T02:54:55.186Z,922.08
2016-12-10T02:55:23.461Z,922.13
2016-12-10T02:55:51.780Z,922.15
2016-12-10T02:56:20.036Z,922.12
2016-12-10T02:56:48.295Z,922.13
2016-12-10T02:57:16.608Z,922.11
2016-12-10T02:57:44.855Z,922.14
2016-12-10T02:58:13.046Z,922.11
2016-12-10T02:58:41.335Z,922.11
2016-12-10T02:59:52.437Z,922.11
2016-12-10T03:00:20.560Z,922.07
2016-12-10T03:00:48.597Z,922.08
2016-12-10T03:01:16.782Z,922.1
2016-12-10T03:01:45.108Z,922.06
2016-12-10T03:02:13.359Z,922.08
2016-12-10T03:02:41.439Z,922.03
2016-12-10T03:03:09.739Z,922.03
2016-12-10T03:03:37.807Z,922.02
2016-12-10T03:04:05.819Z,922.03
2016-12-10T03:04:33.824Z,922.06
2016-12-10T03:05:45.017Z,922.04
2016-12-10T03:06:13.315Z,921.99
2016-12-10T03:06:41.530Z,922.01
2016-12-10T03:07:09.712Z,921.98
2016-12-10T03:07:37.938Z,921.98
2016-12-10T03:08:06.189Z,922.03
2016-12-10T03:08:34.360Z,922.05
2016-12-10T03:09:02.566Z,922.03
2016-12-10T03:09:30.814Z,922.07
2016-12-10T03:09:59.003Z,922.06
2016-12-10T03:10:27.004Z,922.02
2016-12-10T03:11:38.192Z,922.05
2016-12-10T03:12:06.492Z,922.08
2016-12-10T03:12:34.705Z,922.08
2016-12-10T03:13:02.888Z,922.07
2016-12-10T03:13:31.113Z,922.08
2016-12-10T03:13:59.264Z,922.07
2016-12-10T03:14:27.348Z,922.06
2016-12-10T03:14:55.371Z,922.05
2016-12-10T03:15:23.704Z,922.06
2016-12-10T03:15:51.801Z,922.08
2016-12-10T03:16:19.991Z,922.06
2016-12-10T03:17:31.278Z,922.04
2016-12-10T03:17:59.398Z,922.01
2016-12-10T03:18:27.706Z,922.02
2016-12-10T03:18:55.793Z,921.98
2016-12-10T03:19:24.117Z,921.98
2016-12-10T03:19:52.272Z,921.98
2016-12-10T03:20:20.535Z,921.95
2016-12-10T03:20:48.738Z,921.96
2016-12-10T03:21:16.893Z,921.91
2016-12-10T03:21:45.178Z,921.96
2016-12-10T03:22:13.271Z,921.97
2016-12-10T03:23:24.559Z,921.89
2016-12-10T03:23:52.666Z,921.88
2016-12-10T03:24:20.885Z,921.85
2016-12-10T03:24:49.068Z,921.86
2016-12-10T03:25:17.205Z,921.86
2016-12-10T03:25:45.182Z,921.85
2016-12-10T03:26:13.353Z,921.83
2016-12-10T03:26:41.561Z,921.85
2016-12-10T03:27:09.714Z,921.8
2016-12-10T03:27:37.817Z,921.81
2016-12-10T03:28:06.008Z,921.83
2016-12-10T03:29:17.201Z,921.8
2016-12-10T03:29:45.435Z,921.8
2016-12-10T03:30:13.556Z,921.77
2016-12-10T03:30:41.641Z,921.74
2016-12-10T03:31:09.871Z,921.78
2016-12-10T03:31:38.028Z,921.78
2016-12-10T03:32:06.199Z,921.75
2016-12-10T03:32:34.405Z,921.73
2016-12-10T03:33:02.656Z,921.76
2016-12-10T03:33:30.845Z,921.73
2016-12-10T03:33:58.852Z,921.7
2016-12-10T03:35:10.134Z,921.71
2016-12-10T03:35:38.432Z,921.75
2016-12-10T03:36:06.551Z,921.71
2016-12-10T03:36:34.548Z,921.72
2016-12-10T03:37:02.776Z,921.76
2016-12-10T03:37:31.025Z,921.74
2016-12-10T03:37:59.196Z,921.71
2016-12-10T03:38:27.400Z,921.75
2016-12-10T03:38:55.747Z,921.73
2016-12-10T03:39:23.939Z,921.76
2016-12-10T03:39:52.124Z,921.73
2016-12-10T03:41:03.310Z,921.74
2016-12-10T03:41:31.513Z,921.71
2016-12-10T03:41:59.728Z,921.73
2016-12-10T03:42:27.908Z,921.75
2016-12-10T03:42:56.225Z,921.72
2016-12-10T03:43:24.381Z,921.71
2016-12-10T03:43:52.551Z,921.71
2016-12-10T03:44:20.765Z,921.71
2016-12-10T03:44:49.015Z,921.69
2016-12-10T03:45:16.930Z,921.72
2016-12-10T03:45:45.115Z,921.74
2016-12-10T03:46:56.215Z,921.72
2016-12-10T03:47:24.514Z,921.75
2016-12-10T03:47:52.638Z,921.74
2016-12-10T03:48:20.724Z,921.74
2016-12-10T03:48:48.952Z,921.69
2016-12-10T03:49:17.107Z,921.7
2016-12-10T03:49:45.091Z,921.67
2016-12-10T03:50:13.397Z,921.63
2016-12-10T03:50:41.547Z,921.66
2016-12-10T03:51:09.649Z,921.63
2016-12-10T03:51:37.743Z,921.6
2016-12-10T03:52:48.938Z,921.59
2016-12-10T03:53:17.236Z,921.61
2016-12-10T03:53:45.451Z,921.57
2016-12-10T03:54:13.634Z,921.56
2016-12-10T03:54:41.866Z,921.55
2016-12-10T03:55:10.115Z,921.59
2016-12-10T03:55:38.098Z,921.59
2016-12-10T03:56:06.302Z,921.59
2016-12-10T03:56:34.552Z,921.56
2016-12-10T03:57:02.837Z,921.59
2016-12-10T03:57:31.027Z,921.6
2016-12-10T03:58:42.127Z,921.6
2016-12-10T03:59:10.330Z,921.62
2016-12-10T03:59:38.577Z,921.64
2016-12-10T04:00:06.758Z,921.62
2016-12-10T04:00:34.889Z,921.63
2016-12-10T04:01:03.140Z,921.56
2016-12-10T04:01:31.400Z,921.62
2016-12-10T04:01:59.611Z,921.63
2016-12-10T04:02:27.861Z,921.59
2016-12-10T04:02:55.863Z,921.61
2016-12-10T04:03:23.962Z,921.56
2016-12-10T04:04:35.244Z,921.58
2016-12-10T04:05:03.443Z,921.54
2016-12-10T04:05:31.663Z,921.53
2016-12-10T04:05:59.843Z,921.52
2016-12-10T04:06:28.160Z,921.57
2016-12-10T04:06:56.407Z,921.51
2016-12-10T04:07:24.676Z,921.52
2016-12-10T04:07:52.877Z,921.5
2016-12-10T04:08:21.126Z,921.52
2016-12-10T04:08:49.223Z,921.49
2016-12-10T04:09:17.415Z,921.51
2016-12-10T04:10:28.512Z,921.45
2016-12-10T04:10:56.721Z,921.45
2016-12-10T04:11:24.845Z,921.44
2016-12-10T04:11:53.121Z,921.42
2016-12-10T04:12:21.446Z,921.43
2016-12-10T04:12:49.695Z,921.44
2016-12-10T04:13:17.960Z,921.41
2016-12-10T04:13:46.164Z,921.45
2016-12-10T04:14:14.133Z,921.37
2016-12-10T04:14:42.324Z,921.41
2016-12-10T04:15:10.606Z,921.4
2016-12-10T04:16:21.799Z,921.4
2016-12-10T04:16:50.096Z,921.4
2016-12-10T04:17:18.407Z,921.39
2016-12-10T04:17:46.501Z,921.44
2016-12-10T04:18:14.818Z,921.38
2016-12-10T04:18:43.071Z,921.38
2016-12-10T04:19:11.151Z,921.37
2016-12-10T04:19:39.266Z,921.39
2016-12-10T04:20:07.605Z,921.36
2016-12-10T04:20:35.703Z,921.41
2016-12-10T04:21:03.797Z,921.41
2016-12-10T04:22:15.078Z,921.41
2016-12-10T04:22:43.377Z,921.37
2016-12-10T04:23:11.496Z,921.37
2016-12-10T04:23:39.619Z,921.4
2016-12-10T04:24:07.843Z,921.4
2016-12-10T04:24:36.002Z,921.35
2016-12-10T04:25:04.079Z,921.35
2016-12-10T04:25:32.198Z,921.38
2016-12-10T04:26:00.539Z,921.35
2016-12-10T04:26:28.636Z,921.38
2016-12-10T04:26:56.733Z,921.37
2016-12-10T04:28:07.921Z,921.36
2016-12-10T04:28:36.129Z,921.36
2016-12-10T04:29:04.438Z,921.36
2016-12-10T04:29:32.429Z,921.32
2016-12-10T04:30:00.651Z,921.31
2016-12-10T04:30:28.812Z,921.34
2016-12-10T04:30:56.802Z,921.36
2016-12-10T04:31:24.940Z,921.36
2016-12-10T04:31:53.003Z,921.32
2016-12-10T04:32:21.201Z,921.38
2016-12-10T04:32:49.391Z,921.36
2016-12-10T04:34:00.936Z,921.33
2016-12-10T04:34:29.238Z,921.36
2016-12-10T04:34:57.364Z,921.33
2016-12-10T04:35:25.263Z,921.37
2016-12-10T04:35:53.489Z,921.32
2016-12-10T04:36:21.459Z,921.35
2016-12-10T04:36:49.726Z,921.36
2016-12-10T04:37:17.930Z,921.37
2016-12-10T04:37:46.086Z,921.37
2016-12-10T04:38:14.280Z,921.35
2016-12-10T04:38:42.470Z,921.36
2016-12-10T04:39:53.663Z,921.38
2016-12-10T04:40:21.872Z,921.39
2016-12-10T04:40:50.091Z,921.38
2016-12-10T04:41:18.269Z,921.39
2016-12-10T04:41:46.492Z,921.38
2016-12-10T04:42:14.645Z,921.4
2016-12-10T04:42:42.629Z,921.37
2016-12-10T04:43:10.833Z,921.38
2016-12-10T04:43:38.802Z,921.37
2016-12-10T04:44:07.002Z,921.36
2016-12-10T04:44:35.190Z,921.35
2016-12-10T04:45:46.196Z,921.35
2016-12-10T04:46:14.304Z,921.33
2016-12-10T04:46:42.336Z,921.32
2016-12-10T04:47:10.512Z,921.33
2016-12-10T04:47:38.646Z,921.32
2016-12-10T04:48:06.895Z,921.3
2016-12-10T04:48:35.164Z,921.3
2016-12-10T04:49:03.277Z,921.29
2016-12-10T04:49:31.431Z,921.3
2016-12-10T04:49:59.538Z,921.31
2016-12-10T04:50:27.728Z,921.3
2016-12-10T04:51:39.012Z,921.32
2016-12-10T04:52:07.121Z,921.29
2016-12-10T04:52:35.429Z,921.28
2016-12-10T04:53:03.527Z,921.32
2016-12-10T04:53:31.663Z,921.3
2016-12-10T04:53:59.906Z,921.31
2016-12-10T04:54:27.891Z,921.28
2016-12-10T04:54:56.102Z,921.25
2016-12-10T04:55:24.350Z,921.3
2016-12-10T04:55:52.642Z,921.33
2016-12-10T04:56:20.832Z,921.3
2016-12-10T04:57:31.927Z,921.29
2016-12-10T04:58:00.131Z,921.32
2016-12-10T04:58:28.438Z,921.31
2016-12-10T04:58:56.623Z,921.28
2016-12-10T04:59:24.848Z,921.28
2016-12-10T04:59:52.918Z,921.25
2016-12-10T05:00:21.091Z,921.29
2016-12-10T05:00:49.213Z,921.26
2016-12-10T05:01:17.387Z,921.26
2016-12-10T05:01:45.580Z,921.27
2016-12-10T05:02:13.681Z,921.29
2016-12-10T05:03:24.783Z,921.26
2016-12-10T05:03:52.890Z,921.29
2016-12-10T05:04:21.197Z,921.28
2016-12-10T05:04:49.293Z,921.27
2016-12-10T05:05:17.514Z,921.29
2016-12-10T05:05:45.760Z,921.3
2016-12-10T05:06:13.753Z,921.3
2016-12-10T05:06:41.771Z,921.3
2016-12-10T05:07:09.930Z,921.29
2016-12-10T05:07:38.120Z,921.26
2016-12-10T05:08:06.219Z,921.31
2016-12-10T05:09:17.222Z,921.27
2016-12-10T05:09:45.524Z,921.27
2016-12-10T05:10:13.828Z,921.27
2016-12-10T05:10:41.823Z,921.3
2016-12-10T05:11:10.045Z,921.25
2016-12-10T05:11:38.106Z,921.26
2016-12-10T05:12:06.275Z,921.21
2016-12-10T05:12:34.296Z,921.21
2016-12-10T05:13:02.636Z,921.24
2016-12-10T05:13:30.824Z,921.24
2016-12-10T05:13:58.920Z,921.24
2016-12-10T05:15:10.114Z,921.2
2016-12-10T05:15:38.414Z,921.17
2016-12-10T05:16:06.631Z,921.17
2016-12-10T05:16:34.722Z,921.21
2016-12-10T05:17:02.948Z,921.2
2016-12-10T05:17:31.103Z,921.18
2016-12-10T05:17:59.178Z,921.22
2016-12-10T05:18:27.295Z,921.18
2016-12-10T05:18:55.539Z,921.22
2016-12-10T05:19:23.545Z,921.19
2016-12-10T05:19:51.828Z,921.2
2016-12-10T05:21:02.839Z,921.18
2016-12-10T05:21:31.043Z,921.16
2016-12-10T05:21:59.258Z,921.16
2016-12-10T05:22:27.438Z,921.16
2016-12-10T05:22:55.563Z,921.17
2016-12-10T05:23:23.814Z,921.13
2016-12-10T05:23:52.081Z,921.14
2016-12-10T05:24:20.381Z,921.12
2016-12-10T05:24:48.449Z,921.18
2016-12-10T05:25:16.546Z,921.17
2016-12-10T05:25:44.455Z,921.14
2016-12-10T05:26:55.742Z,921.16
2016-12-10T05:27:23.949Z,921.17
2016-12-10T05:27:52.162Z,921.13
2016-12-10T05:28:20.257Z,921.15
2016-12-10T05:28:48.295Z,921.15
2016-12-10T05:29:16.546Z,921.15
2016-12-10T05:29:44.717Z,921.16
2016-12-10T05:30:12.827Z,921.17
2016-12-10T05:30:41.074Z,921.14
2016-12-10T05:31:09.173Z,921.14
2016-12-10T05:31:37.082Z,921.17
2016-12-10T05:32:48.179Z,921.14
2016-12-10T05:33:16.292Z,921.17
2016-12-10T05:33:44.509Z,921.18
2016-12-10T05:34:12.507Z,921.2
2016-12-10T05:34:40.728Z,921.2
2016-12-10T05:35:08.787Z,921.21
2016-12-10T05:35:36.960Z,921.2
2016-12-10T05:36:05.260Z,921.21
2016-12-10T05:36:33.597Z,921.16
2016-12-10T05:37:01.887Z,921.19
2016-12-10T05:37:29.983Z,921.16
2016-12-10T05:38:41.173Z,921.17
2016-12-10T05:39:09.373Z,921.17
2016-12-10T05:39:37.401Z,921.15
2016-12-10T05:40:05.584Z,921.18
2016-12-10T05:40:33.807Z,921.18
2016-12-10T05:41:01.964Z,921.17
2016-12-10T05:41:30.133Z,921.19
2016-12-10T05:41:58.245Z,921.19
2016-12-10T05:42:26.492Z,921.19
2016-12-10T05:42:54.502Z,921.2
2016-12-10T05:43:22.500Z,921.2
2016-12-10T05:44:33.799Z,921.16
2016-12-10T05:45:02.085Z,921.19
2016-12-10T05:45:30.393Z,921.19
2016-12-10T05:45:58.480Z,921.13
2016-12-10T05:46:26.799Z,921.14
2016-12-10T05:46:54.961Z,921.16
2016-12-10T05:47:23.032Z,921.15
2016-12-10T05:47:51.148Z,921.15
2016-12-10T05:48:19.299Z,921.18
2016-12-10T05:48:47.302Z,921.15
2016-12-10T05:49:15.399Z,921.16
2016-12-10T05:50:26.683Z,921.18
2016-12-10T05:50:54.796Z,921.15
2016-12-10T05:51:22.828Z,921.14
2016-12-10T05:51:51.103Z,921.13
2016-12-10T05:52:19.325Z,921.13
2016-12-10T05:52:47.480Z,921.14
2016-12-10T05:53:15.556Z,921.12
2016-12-10T05:53:43.666Z,921.1
2016-12-10T05:54:11.722Z,921.1
2016-12-10T05:54:39.728Z,921.12
2016-12-10T05:55:07.914Z,921.12
2016-12-10T05:56:19.018Z,921.09
2016-12-10T05:56:47.224Z,921.07
2016-12-10T05:57:15.444Z,921.08
2016-12-10T05:57:43.622Z,921.09
2016-12-10T05:58:11.754Z,921.06
2016-12-10T05:58:39.915Z,921.08
2016-12-10T05:59:08.180Z,921.08
2016-12-10T05:59:36.388Z,921.05
2016-12-10T06:00:04.635Z,921.04
2016-12-10T06:00:32.828Z,921.05
2016-12-10T06:01:01.014Z,921.03
2016-12-10T06:02:11.927Z,921.03
2016-12-10T06:02:40.225Z,921.05
2016-12-10T06:03:08.443Z,921.07
2016-12-10T06:03:36.527Z,921.08
2016-12-10T06:04:04.569Z,921.05
2016-12-10T06:04:32.727Z,921.04
2016-12-10T06:05:00.621Z,921.02
2016-12-10T06:05:28.640Z,921.06
2016-12-10T06:05:56.696Z,921.05
2016-12-10T06:06:24.979Z,921.08
2016-12-10T06:06:53.260Z,921.05
2016-12-10T06:08:04.291Z,921.04
2016-12-10T06:08:32.401Z,921.05
2016-12-10T06:09:00.707Z,921.09
2016-12-10T06:09:28.988Z,921.11
2016-12-10T06:09:57.120Z,921.09
2016-12-10T06:10:25.280Z,921.06
2016-12-10T06:10:53.358Z,921.06
2016-12-10T06:11:21.563Z,921.07
2016-12-10T06:11:49.804Z,921.07
2016-12-10T06:12:17.815Z,921.09
2016-12-10T06:12:45.904Z,921.06
2016-12-10T06:13:57.098Z,921.07
2016-12-10T06:14:25.397Z,921.1
2016-12-10T06:14:53.708Z,921.06
2016-12-10T06:15:21.793Z,921.06
2016-12-10T06:15:50.016Z,921.06
2016-12-10T06:16:18.081Z,921.06
2016-12-10T06:16:46.250Z,921.03
2016-12-10T06:17:14.420Z,921.07
2016-12-10T06:17:42.481Z,921.06
2016-12-10T06:18:10.770Z,921.05
2016-12-10T06:18:38.962Z,921.09
2016-12-10T06:19:50.155Z,921.06
2016-12-10T06:20:18.357Z,921.11
2016-12-10T06:20:46.574Z,921.1
2016-12-10T06:21:14.571Z,921.08
2016-12-10T06:21:42.710Z,921.04
2016-12-10T06:22:10.772Z,921.09
2016-12-10T06:22:38.942Z,921.09
2016-12-10T06:23:07.050Z,921.1
2016-12-10T06:23:35.299Z,921.13
2016-12-10T06:24:03.398Z,921.08
2016-12-10T06:24:31.495Z,921.1
2016-12-10T06:25:42.592Z,921.09
2016-12-10T06:26:10.894Z,921.06
2016-12-10T06:26:39.105Z,921.08
2016-12-10T06:27:07.100Z,921.05
2016-12-10T06:27:35.419Z,921.03
2016-12-10T06:28:03.668Z,921.06
2016-12-10T06:28:31.653Z,921.02
2016-12-10T06:28:59.864Z,921.03
2016-12-10T06:29:27.922Z,921.03
2016-12-10T06:29:56.200Z,920.99
2016-12-10T06:30:24.295Z,921.03
2016-12-10T06:31:35.480Z,920.99
2016-12-10T06:32:03.591Z,920.95
2016-12-10T06:32:31.715Z,920.97
2016-12-10T06:32:59.893Z,920.96
2016-12-10T06:33:28.020Z,920.99
2016-12-10T06:33:56.175Z,920.97
2016-12-10T06:34:24.346Z,920.94
2016-12-10T06:34:52.552Z,920.95
2016-12-10T06:35:20.799Z,920.94
2016-12-10T06:35:48.903Z,920.96
2016-12-10T06:36:16.999Z,920.95
2016-12-10T06:37:28.183Z,920.98
2016-12-10T06:37:56.387Z,920.98
2016-12-10T06:38:24.508Z,920.96
2016-12-10T06:38:52.782Z,921
2016-12-10T06:39:20.910Z,920.98
2016-12-10T06:39:49.156Z,920.98
2016-12-10T06:40:17.329Z,920.98
2016-12-10T06:40:45.533Z,921
2016-12-10T06:41:13.777Z,920.98
2016-12-10T06:41:41.968Z,920.98